createdAt,value
2023-11-12T00:02:09.802Z,2.08
2023-11-12T00:04:36.473Z,2.20
2023-11-12T00:07:04.006Z,2.30
2023-11-12T00:09:30.915Z,1.77
2023-11-12T00:11:57.638Z,2.00
2023-11-12T00:14:25.432Z,1.70
2023-11-12T00:16:52.390Z,2.00
2023-11-12T00:19:19.488Z,2.10
2023-11-12T00:21:49.573Z,1.75
2023-11-12T00:24:19.066Z,1.60
2023-11-12T00:26:45.673Z,1.92
2023-11-12T00:29:12.513Z,1.70
2023-11-12T00:31:39.588Z,1.77
2023-11-12T00:34:06.175Z,1.50
2023-11-12T00:36:32.776Z,1.77
2023-11-12T00:38:59.350Z,1.75
2023-11-12T00:41:26.242Z,1.70
2023-11-12T00:43:52.789Z,1.42
2023-11-12T00:46:19.961Z,1.60
2023-11-12T00:48:46.534Z,1.65
2023-11-12T00:51:13.316Z,1.80
2023-11-12T00:53:39.885Z,1.80
2023-11-12T00:56:09.192Z,1.83
2023-11-12T00:58:36.219Z,1.67
2023-11-12T01:01:05.800Z,1.75
2023-11-12T01:03:34.579Z,1.50
2023-11-12T01:06:04.770Z,1.40
2023-11-12T01:08:31.558Z,1.73
2023-11-12T01:10:58.762Z,1.63
2023-11-12T01:13:25.966Z,1.63
2023-11-12T01:15:53.262Z,1.65
2023-11-12T01:18:20.436Z,1.70
2023-11-12T01:20:46.962Z,1.70
2023-11-12T01:23:14.760Z,1.80
2023-11-12T01:25:42.220Z,1.70
2023-11-12T01:28:08.877Z,1.60
2023-11-12T01:30:35.427Z,1.70
2023-11-12T01:33:02.111Z,1.73
2023-11-12T01:35:28.616Z,1.90
2023-11-12T01:37:55.836Z,1.98
2023-11-12T01:40:22.459Z,1.90
2023-11-12T01:42:49.062Z,1.77
2023-11-12T01:45:16.020Z,1.85
2023-11-12T01:47:45.581Z,1.98
2023-11-12T01:50:14.083Z,2.05
2023-11-12T01:52:41.226Z,2.17
2023-11-12T01:55:08.676Z,1.80
2023-11-12T01:57:35.387Z,1.80
2023-11-12T02:00:12.748Z,1.85
2023-11-12T02:02:39.932Z,1.90
2023-11-12T02:05:10.079Z,1.92
2023-11-12T02:07:38.111Z,1.85
2023-11-12T02:10:14.943Z,1.80
2023-11-12T02:12:45.422Z,1.90
2023-11-12T02:15:15.797Z,2.00
2023-11-12T02:17:44.584Z,2.15
2023-11-12T02:20:14.052Z,1.92
2023-11-12T02:22:44.482Z,1.92
2023-11-12T02:25:14.649Z,1.80
2023-11-12T02:27:41.831Z,1.98
2023-11-12T02:30:09.863Z,1.70
2023-11-12T02:35:03.780Z,1.80
2023-11-12T02:37:30.618Z,1.90
2023-11-12T02:39:57.116Z,1.80
2023-11-12T02:42:23.663Z,1.85
2023-11-12T02:44:50.418Z,1.90
2023-11-12T02:47:17.289Z,1.98
2023-11-12T02:50:02.527Z,1.75
2023-11-12T02:52:29.031Z,1.90
2023-11-12T02:54:55.579Z,1.73
2023-11-12T02:57:23.327Z,1.80
2023-11-12T02:59:50.302Z,2.10
2023-11-12T03:02:16.934Z,2.00
2023-11-12T03:04:43.549Z,1.67
2023-11-12T03:07:10.229Z,1.70
2023-11-12T03:09:36.841Z,1.95
2023-11-12T03:12:06.375Z,1.83
2023-11-12T03:14:32.950Z,2.10
2023-11-12T03:16:59.397Z,1.80
2023-11-12T03:19:26.512Z,2.00
2023-11-12T03:21:56.450Z,1.80
2023-11-12T03:24:23.608Z,1.83
2023-11-12T03:26:54.035Z,1.90
2023-11-12T03:29:20.527Z,1.98
2023-11-12T03:31:49.431Z,1.85
2023-11-12T03:34:17.272Z,2.13
2023-11-12T03:36:43.829Z,2.05
2023-11-12T03:39:10.653Z,2.05
2023-11-12T03:41:37.175Z,2.58
2023-11-12T03:44:04.670Z,2.40
2023-11-12T03:48:57.646Z,2.20
2023-11-12T03:51:24.121Z,2.00
2023-11-12T03:53:50.836Z,2.15
2023-11-12T03:56:17.459Z,2.00
2023-11-12T03:58:44.052Z,2.10
2023-11-12T04:01:10.559Z,1.92
2023-11-12T04:03:37.561Z,2.20
2023-11-12T04:06:04.501Z,2.13
2023-11-12T04:08:31.670Z,2.28
2023-11-12T04:10:58.217Z,2.20
2023-11-12T04:13:24.704Z,1.88
2023-11-12T04:15:51.429Z,1.92
2023-11-12T04:18:18.301Z,1.92
2023-11-12T04:20:44.898Z,2.15
2023-11-12T04:23:11.451Z,2.08
2023-11-12T04:25:39.185Z,2.20
2023-11-12T04:28:06.395Z,2.28
2023-11-12T04:30:33.974Z,1.95
2023-11-12T04:35:27.389Z,2.10
2023-11-12T04:37:53.810Z,2.08
2023-11-12T04:40:20.343Z,2.08
2023-11-12T04:42:48.087Z,2.30
2023-11-12T04:45:14.849Z,2.30
2023-11-12T04:47:41.588Z,2.33
2023-11-12T04:50:08.379Z,1.95
2023-11-12T04:52:34.810Z,2.13
2023-11-12T04:55:01.267Z,2.05
2023-11-12T04:57:27.782Z,2.08
2023-11-12T04:59:55.174Z,2.00
2023-11-12T05:04:48.952Z,1.92
2023-11-12T05:07:15.446Z,2.10
2023-11-12T05:09:42.958Z,1.83
2023-11-12T05:12:10.464Z,2.20
2023-11-12T05:14:37.258Z,2.00
2023-11-12T05:17:04.057Z,2.20
2023-11-12T05:19:30.550Z,2.20
2023-11-12T05:21:57.302Z,2.03
2023-11-12T05:24:23.871Z,2.15
2023-11-12T05:26:50.392Z,2.25
2023-11-12T05:29:16.885Z,2.78
2023-11-12T05:31:43.502Z,2.33
2023-11-12T05:34:10.032Z,2.20
2023-11-12T05:36:36.669Z,2.45
2023-11-12T05:39:03.345Z,2.33
2023-11-12T05:41:29.861Z,2.20
2023-11-12T05:43:56.405Z,2.42
2023-11-12T05:46:23.041Z,2.40
2023-11-12T05:48:49.564Z,2.30
2023-11-12T05:51:16.189Z,2.05
2023-11-12T05:53:42.667Z,2.10
2023-11-12T05:56:09.760Z,2.20
2023-11-12T05:58:36.316Z,2.22
2023-11-12T06:01:02.820Z,2.28
2023-11-12T06:03:29.402Z,2.30
2023-11-12T06:05:56.081Z,2.35
2023-11-12T06:08:23.285Z,2.20
2023-11-12T06:10:49.879Z,2.33
2023-11-12T06:13:16.590Z,2.10
2023-11-12T06:15:43.153Z,2.47
2023-11-12T06:18:09.947Z,2.30
2023-11-12T06:20:36.586Z,2.17
2023-11-12T06:23:03.198Z,2.10
2023-11-12T06:25:29.633Z,2.47
2023-11-12T06:27:56.180Z,2.20
2023-11-12T06:30:22.740Z,2.50
2023-11-12T06:32:49.407Z,2.10
2023-11-12T06:35:15.977Z,2.15
2023-11-12T06:37:42.621Z,2.17
2023-11-12T06:40:09.501Z,2.40
2023-11-12T06:42:36.238Z,2.60
2023-11-12T06:45:09.566Z,2.42
2023-11-12T06:47:36.605Z,2.20
2023-11-12T06:50:04.587Z,2.45
2023-11-12T06:52:31.027Z,2.78
2023-11-12T06:54:57.690Z,2.20
2023-11-12T06:57:24.204Z,2.20
2023-11-12T06:59:50.623Z,2.17
2023-11-12T07:02:17.272Z,2.58
2023-11-12T07:04:43.809Z,2.75
2023-11-12T07:07:16.588Z,2.60
2023-11-12T07:09:44.077Z,2.50
2023-11-12T07:12:10.562Z,2.65
2023-11-12T07:14:37.543Z,2.50
2023-11-12T07:17:04.228Z,2.50
2023-11-12T07:19:31.357Z,2.40
2023-11-12T07:21:57.862Z,2.60
2023-11-12T07:24:24.461Z,2.58
2023-11-12T07:26:50.968Z,2.60
2023-11-12T07:29:17.631Z,2.67
2023-11-12T07:31:44.433Z,2.60
2023-11-12T07:34:10.976Z,2.72
2023-11-12T07:36:37.785Z,2.80
2023-11-12T07:39:04.565Z,2.67
2023-11-12T07:41:34.833Z,2.50
2023-11-12T07:44:01.605Z,2.78
2023-11-12T07:46:28.167Z,2.50
2023-11-12T07:48:55.273Z,3.20
2023-11-12T07:51:23.319Z,2.85
2023-11-12T07:53:50.122Z,3.00
2023-11-12T07:56:16.722Z,3.20
2023-11-12T07:58:44.089Z,3.38
2023-11-12T08:01:12.393Z,3.08
2023-11-12T08:03:39.174Z,3.15
2023-11-12T08:06:05.993Z,3.38
2023-11-12T08:08:34.006Z,3.30
2023-11-12T08:11:05.040Z,3.25
2023-11-12T08:13:34.581Z,3.72
2023-11-12T08:16:01.015Z,3.22
2023-11-12T08:18:27.587Z,3.10
2023-11-12T08:20:56.089Z,2.83
2023-11-12T08:23:22.816Z,3.05
2023-11-12T08:25:49.632Z,2.65
2023-11-12T08:28:19.733Z,2.53
2023-11-12T08:30:47.669Z,2.50
2023-11-12T08:33:14.217Z,2.60
2023-11-12T08:35:41.206Z,2.42
2023-11-12T08:38:07.951Z,2.75
2023-11-12T08:40:34.792Z,2.72
2023-11-12T08:43:03.420Z,2.25
2023-11-12T08:45:36.187Z,2.88
2023-11-12T08:48:03.238Z,2.50
2023-11-12T08:50:30.028Z,2.33
2023-11-12T08:52:58.123Z,2.58
2023-11-12T08:55:24.669Z,2.40
2023-11-12T08:57:51.221Z,2.45
2023-11-12T09:00:19.805Z,2.50
2023-11-12T09:02:49.710Z,2.85
2023-11-12T09:05:16.316Z,2.60
2023-11-12T09:07:43.322Z,2.55
2023-11-12T09:10:10.500Z,2.45
2023-11-12T09:15:07.713Z,2.35
2023-11-12T09:17:34.364Z,2.17
2023-11-12T09:20:00.988Z,2.05
2023-11-12T09:22:28.307Z,2.30
2023-11-12T09:25:04.480Z,2.38
2023-11-12T09:27:37.510Z,2.25
2023-11-12T09:30:09.735Z,2.40
2023-11-12T09:32:39.292Z,2.22
2023-11-12T09:35:07.037Z,2.00
2023-11-12T09:37:33.628Z,2.05
2023-11-12T09:40:00.697Z,2.20
2023-11-12T09:44:57.305Z,2.67
2023-11-12T09:47:31.048Z,2.58
2023-11-12T09:49:57.772Z,2.42
2023-11-12T09:52:24.288Z,3.05
2023-11-12T09:54:51.620Z,2.75
2023-11-12T09:57:18.869Z,2.80
2023-11-12T09:59:45.388Z,3.20
2023-11-12T10:02:11.994Z,3.10
2023-11-12T10:04:43.210Z,2.97
2023-11-12T10:07:10.422Z,3.13
2023-11-12T10:12:05.752Z,3.42
2023-11-12T10:14:32.261Z,3.40
2023-11-12T10:17:08.736Z,3.50
2023-11-12T10:19:40.116Z,3.50
2023-11-12T10:22:10.666Z,3.40
2023-11-12T10:24:46.854Z,3.58
2023-11-12T10:27:15.523Z,3.40
2023-11-12T10:29:45.775Z,2.92
2023-11-12T10:32:28.288Z,3.00
2023-11-12T10:34:56.388Z,2.90
2023-11-12T10:37:22.920Z,3.17
2023-11-12T10:39:50.883Z,3.30
2023-11-12T10:42:25.954Z,3.20
2023-11-12T10:44:56.163Z,3.20
2023-11-12T10:47:27.733Z,3.28
2023-11-12T10:49:55.913Z,3.22
2023-11-12T10:52:23.125Z,3.10
2023-11-12T10:54:52.045Z,3.13
2023-11-12T10:57:20.064Z,2.92
2023-11-12T10:59:49.383Z,3.40
2023-11-12T11:02:23.701Z,2.90
2023-11-12T11:04:50.397Z,2.85
2023-11-12T11:07:17.319Z,3.08
2023-11-12T11:09:44.031Z,2.72
2023-11-12T11:12:10.891Z,2.88
2023-11-12T11:14:37.462Z,3.22
2023-11-12T11:17:06.588Z,3.03
2023-11-12T11:19:46.271Z,3.20
2023-11-12T11:22:22.613Z,2.90
2023-11-12T11:24:49.250Z,3.10
2023-11-12T11:27:19.901Z,3.35
2023-11-12T11:30:07.260Z,3.17
2023-11-12T11:32:34.027Z,3.10
2023-11-12T11:35:01.286Z,2.88
2023-11-12T11:39:54.811Z,2.72
2023-11-12T11:42:21.666Z,3.17
2023-11-12T11:44:50.641Z,3.40
2023-11-12T11:47:17.713Z,2.85
2023-11-12T11:49:59.228Z,2.80
2023-11-12T11:52:26.965Z,3.05
2023-11-12T11:54:56.837Z,2.85
2023-11-12T11:57:27.877Z,2.90
2023-11-12T11:59:55.124Z,3.08
2023-11-12T12:02:22.816Z,2.85
2023-11-12T12:04:49.966Z,3.10
2023-11-12T12:07:23.496Z,2.90
2023-11-12T12:09:50.690Z,3.00
2023-11-12T12:14:44.063Z,2.78
2023-11-12T12:17:10.887Z,2.80
2023-11-12T12:19:37.610Z,2.72
2023-11-12T12:22:06.251Z,3.05
2023-11-12T12:24:36.674Z,2.72
2023-11-12T12:27:06.768Z,2.75
2023-11-12T12:29:34.150Z,3.05
2023-11-12T12:32:12.210Z,2.85
2023-11-12T12:34:46.180Z,2.55
2023-11-12T12:37:20.232Z,2.92
2023-11-12T12:39:51.619Z,2.72
2023-11-12T12:42:21.134Z,3.35
2023-11-12T12:44:49.191Z,2.75
2023-11-12T12:47:28.780Z,2.70
2023-11-12T12:49:55.513Z,2.72
2023-11-12T12:52:22.818Z,2.65
2023-11-12T12:57:16.106Z,2.80
2023-11-12T12:59:42.723Z,3.03
2023-11-12T13:02:10.838Z,2.90
2023-11-12T13:04:37.836Z,2.97
2023-11-12T13:07:08.290Z,2.90
2023-11-12T13:09:35.326Z,2.92
2023-11-12T13:12:03.880Z,2.80
2023-11-12T13:14:31.503Z,12.25
2023-11-12T13:16:58.175Z,4.25
2023-11-12T13:19:25.938Z,4.75
2023-11-12T13:21:59.478Z,4.03
2023-11-12T13:24:30.127Z,3.17
2023-11-12T13:26:57.366Z,3.40
2023-11-12T13:31:51.200Z,2.88
2023-11-12T13:34:18.403Z,3.10
2023-11-12T13:39:12.414Z,2.90
2023-11-12T13:41:39.141Z,3.00
2023-11-12T13:44:06.629Z,3.10
2023-11-12T13:46:33.503Z,2.85
2023-11-12T13:49:02.985Z,2.55
2023-11-12T13:51:31.662Z,3.08
2023-11-12T13:53:59.103Z,3.33
2023-11-12T13:56:25.783Z,3.50
2023-11-12T13:58:54.234Z,4.32
2023-11-12T14:01:21.688Z,3.40
2023-11-12T14:03:48.445Z,3.30
2023-11-12T14:06:15.294Z,3.33
2023-11-12T14:08:42.760Z,3.42
2023-11-12T14:11:09.536Z,3.13
2023-11-12T14:13:36.030Z,3.60
2023-11-12T14:16:02.612Z,3.65
2023-11-12T14:18:29.303Z,3.10
2023-11-12T14:20:56.224Z,3.10
2023-11-12T14:23:25.532Z,3.03
2023-11-12T14:25:54.458Z,3.10
2023-11-12T14:28:24.729Z,2.90
2023-11-12T14:30:52.049Z,3.58
2023-11-12T14:35:46.756Z,2.75
2023-11-12T14:38:13.318Z,3.17
2023-11-12T14:40:39.897Z,3.00
2023-11-12T14:43:08.147Z,3.13
2023-11-12T14:45:36.601Z,3.17
2023-11-12T14:48:03.187Z,2.95
2023-11-12T14:50:31.118Z,3.35
2023-11-12T14:52:58.994Z,3.13
2023-11-12T14:55:26.678Z,3.30
2023-11-12T14:57:57.652Z,3.13
2023-11-12T15:00:33.981Z,3.15
2023-11-12T15:03:01.223Z,3.38
2023-11-12T15:05:29.214Z,2.85
2023-11-12T15:07:55.793Z,2.90
2023-11-12T15:10:22.354Z,3.30
2023-11-12T15:12:49.528Z,3.10
2023-11-12T15:17:42.885Z,3.00
2023-11-12T15:20:14.387Z,2.60
2023-11-12T15:22:42.166Z,2.97
2023-11-12T15:25:09.312Z,3.00
2023-11-12T15:27:36.367Z,2.72
2023-11-12T15:30:04.233Z,2.65
2023-11-12T15:32:30.814Z,3.08
2023-11-12T15:34:57.280Z,3.30
2023-11-12T15:37:23.954Z,3.05
2023-11-12T15:39:51.002Z,2.80
2023-11-12T15:42:18.442Z,3.20
2023-11-12T15:44:49.654Z,3.35
2023-11-12T15:47:19.456Z,3.17
2023-11-12T15:49:47.347Z,3.08
2023-11-12T15:52:15.020Z,2.85
2023-11-12T15:54:46.757Z,3.03
2023-11-12T15:57:13.413Z,2.97
2023-11-12T15:59:39.958Z,3.10
2023-11-12T16:02:06.800Z,2.90
2023-11-12T16:04:34.047Z,3.47
2023-11-12T16:07:00.820Z,3.80
2023-11-12T16:09:27.419Z,3.25
2023-11-12T16:11:53.974Z,3.40
2023-11-12T16:14:20.487Z,3.38
2023-11-12T16:16:47.012Z,3.58
2023-11-12T16:19:13.676Z,3.28
2023-11-12T16:21:40.413Z,3.38
2023-11-12T16:24:07.377Z,3.05
2023-11-12T16:26:34.079Z,3.17
2023-11-12T16:29:00.608Z,3.45
2023-11-12T16:31:28.889Z,3.40
2023-11-12T16:33:55.456Z,3.20
2023-11-12T16:36:22.060Z,3.60
2023-11-12T16:38:48.719Z,3.47
2023-11-12T16:41:15.509Z,3.45
2023-11-12T16:43:41.973Z,3.22
2023-11-12T16:46:10.008Z,3.55
2023-11-12T16:48:36.681Z,3.30
2023-11-12T16:51:04.559Z,3.70
2023-11-12T16:53:31.126Z,3.15
2023-11-12T16:55:58.601Z,3.53
2023-11-12T17:00:52.475Z,3.80
2023-11-12T17:03:19.222Z,3.65
2023-11-12T17:05:45.849Z,3.60
2023-11-12T17:08:13.073Z,3.72
2023-11-12T17:10:39.561Z,3.47
2023-11-12T17:13:06.240Z,3.72
2023-11-12T17:15:33.039Z,3.90
2023-11-12T17:17:59.584Z,3.83
2023-11-12T17:20:26.230Z,3.92
2023-11-12T17:22:53.285Z,3.80
2023-11-12T17:25:19.907Z,3.80
2023-11-12T17:27:46.592Z,3.95
2023-11-12T17:30:13.405Z,4.03
2023-11-12T17:32:40.011Z,3.83
2023-11-12T17:35:06.741Z,3.97
2023-11-12T17:37:33.217Z,4.10
2023-11-12T17:39:59.903Z,4.15
2023-11-12T17:42:27.553Z,4.00
2023-11-12T17:44:54.026Z,4.00
2023-11-12T17:47:20.984Z,4.18
2023-11-12T17:49:56.187Z,3.60
2023-11-12T17:52:24.872Z,3.83
2023-11-12T17:54:51.890Z,3.90
2023-11-12T17:57:20.515Z,4.03
2023-11-12T17:59:47.125Z,3.80
2023-11-12T18:02:14.415Z,3.65
2023-11-12T18:04:41.208Z,4.15
2023-11-12T18:07:07.926Z,4.05
2023-11-12T18:09:34.503Z,3.72
2023-11-12T18:12:01.171Z,4.03
2023-11-12T18:14:27.737Z,3.97
2023-11-12T18:16:54.340Z,4.18
2023-11-12T18:19:21.044Z,3.80
2023-11-12T18:21:47.669Z,4.20
2023-11-12T18:24:14.362Z,4.10
2023-11-12T18:26:41.074Z,4.25
2023-11-12T18:29:07.738Z,4.32
2023-11-12T18:31:38.987Z,4.30
2023-11-12T18:34:06.543Z,4.18
2023-11-12T18:36:33.360Z,4.43
2023-11-12T18:38:59.949Z,4.53
2023-11-12T18:41:26.552Z,4.38
2023-11-12T18:43:53.103Z,4.38
2023-11-12T18:46:20.810Z,4.10
2023-11-12T18:48:47.575Z,4.38
2023-11-12T18:51:14.172Z,4.03
2023-11-12T18:53:40.680Z,4.13
2023-11-12T18:56:08.848Z,4.10
2023-11-12T18:58:35.928Z,4.55
2023-11-12T19:01:02.601Z,4.50
2023-11-12T19:03:29.383Z,4.32
2023-11-12T19:05:55.909Z,4.30
2023-11-12T19:08:22.443Z,4.20
2023-11-12T19:10:49.724Z,4.28
2023-11-12T19:13:16.372Z,4.07
2023-11-12T19:15:43.030Z,4.05
2023-11-12T19:18:12.315Z,4.05
2023-11-12T19:20:40.661Z,4.13
2023-11-12T19:23:07.275Z,4.30
2023-11-12T19:25:33.743Z,3.92
2023-11-12T19:28:02.674Z,4.13
2023-11-12T19:30:31.422Z,3.90
2023-11-12T19:33:00.158Z,4.47
2023-11-12T19:35:29.014Z,4.38
2023-11-12T19:37:56.111Z,3.97
2023-11-12T19:40:23.912Z,4.13
2023-11-12T19:42:50.549Z,4.32
2023-11-12T19:45:21.095Z,4.18
2023-11-12T19:47:52.536Z,4.28
2023-11-12T19:50:19.608Z,4.30
2023-11-12T19:52:46.640Z,4.05
2023-11-12T19:55:15.890Z,4.38
2023-11-12T19:57:42.678Z,4.15
2023-11-12T20:00:11.057Z,4.60
2023-11-12T20:02:40.355Z,4.72
2023-11-12T20:05:07.650Z,4.80
2023-11-12T20:07:34.188Z,4.63
2023-11-12T20:10:00.905Z,5.30
2023-11-12T20:12:27.404Z,5.18
2023-11-12T20:14:54.260Z,4.57
2023-11-12T20:17:20.791Z,5.30
2023-11-12T20:19:47.416Z,4.95
2023-11-12T20:22:18.683Z,4.80
2023-11-12T20:24:45.646Z,4.53
2023-11-12T20:27:14.526Z,4.90
2023-11-12T20:29:41.160Z,5.00
2023-11-12T20:32:08.527Z,4.60
2023-11-12T20:34:35.148Z,4.85
2023-11-12T20:37:01.694Z,5.32
2023-11-12T20:39:28.263Z,5.25
2023-11-12T20:41:57.595Z,5.03
2023-11-12T20:44:24.978Z,4.63
2023-11-12T20:46:51.753Z,5.00
2023-11-12T20:49:19.011Z,5.00
2023-11-12T20:51:46.907Z,4.70
2023-11-12T20:54:14.113Z,5.30
2023-11-12T20:56:41.520Z,5.05
2023-11-12T20:59:10.366Z,5.05
2023-11-12T21:01:37.533Z,4.90
2023-11-12T21:04:06.171Z,4.93
2023-11-12T21:06:34.266Z,4.90
2023-11-12T21:09:04.438Z,5.20
2023-11-12T21:11:34.090Z,4.93
2023-11-12T21:14:02.006Z,5.05
2023-11-12T21:16:29.474Z,5.00
2023-11-12T21:18:57.586Z,5.00
2023-11-12T21:21:25.353Z,5.13
2023-11-12T21:23:52.015Z,5.15
2023-11-12T21:26:18.537Z,5.55
2023-11-12T21:28:45.082Z,5.47
2023-11-12T21:31:14.573Z,4.97
2023-11-12T21:33:41.374Z,5.55
2023-11-12T21:36:08.819Z,5.50
2023-11-12T21:38:35.930Z,5.80
2023-11-12T21:41:02.603Z,5.15
2023-11-12T21:43:29.153Z,5.28
2023-11-12T21:45:56.169Z,5.22
2023-11-12T21:48:22.823Z,5.13
2023-11-12T21:50:51.256Z,5.10
2023-11-12T21:53:19.704Z,5.22
2023-11-12T21:55:46.512Z,4.97
2023-11-12T21:58:13.271Z,5.30
2023-11-12T22:00:39.795Z,5.55
2023-11-12T22:03:06.479Z,5.00
2023-11-12T22:05:33.233Z,5.15
2023-11-12T22:07:59.898Z,5.15
2023-11-12T22:10:26.650Z,5.05
2023-11-12T22:12:56.347Z,5.25
2023-11-12T22:15:23.226Z,4.90
2023-11-12T22:17:49.955Z,5.20
2023-11-12T22:20:16.748Z,5.38
2023-11-12T22:22:44.023Z,5.32
2023-11-12T22:27:44.993Z,4.68
2023-11-12T22:30:13.073Z,4.65
2023-11-12T22:32:39.672Z,4.97
2023-11-12T22:35:07.111Z,4.82
2023-11-12T22:37:33.707Z,5.28
2023-11-12T22:40:00.472Z,5.32
2023-11-12T22:42:27.031Z,4.75
2023-11-12T22:44:53.566Z,5.07
2023-11-12T22:47:20.110Z,6.05
2023-11-12T22:49:46.611Z,5.40
2023-11-12T22:52:13.164Z,4.97
2023-11-12T22:54:39.682Z,4.53
2023-11-12T22:57:06.448Z,5.05
2023-11-12T22:59:33.064Z,4.68
2023-11-12T23:01:59.708Z,4.68
2023-11-12T23:04:26.627Z,5.05
2023-11-12T23:06:53.182Z,4.85
2023-11-12T23:09:22.729Z,5.03
2023-11-12T23:11:49.279Z,4.70
2023-11-12T23:14:15.997Z,4.72
2023-11-12T23:16:43.132Z,4.95
2023-11-12T23:19:10.469Z,4.72
2023-11-12T23:21:37.074Z,4.88
2023-11-12T23:24:03.665Z,5.03
2023-11-12T23:26:30.100Z,4.60
2023-11-12T23:28:56.639Z,4.43
2023-11-12T23:31:23.645Z,4.95
2023-11-12T23:33:50.687Z,4.65
2023-11-12T23:36:17.299Z,4.28
2023-11-12T23:38:43.786Z,4.50
2023-11-12T23:41:11.398Z,4.40
2023-11-12T23:43:37.923Z,4.30
2023-11-12T23:46:05.493Z,4.43
2023-11-12T23:48:35.050Z,4.30
2023-11-12T23:51:02.301Z,4.00
2023-11-12T23:53:29.076Z,4.60
2023-11-12T23:55:56.153Z,4.50
2023-11-12T23:58:22.618Z,4.05
